createdAt,value
2023-03-30T00:03:33.657Z,98574.27
2023-03-30T00:13:41.899Z,98566.44
2023-03-30T00:23:50.250Z,98554.54
2023-03-30T00:33:57.828Z,98551.94
2023-03-30T00:44:08.294Z,98542.77
2023-03-30T00:54:20.717Z,98536.09
2023-03-30T01:04:28.469Z,98528.69
2023-03-30T01:14:36.728Z,98528.10
2023-03-30T01:24:55.005Z,98520.75
2023-03-30T01:35:29.683Z,98513.25
2023-03-30T01:45:35.661Z,98491.91
2023-03-30T01:55:44.690Z,98491.42
2023-03-30T02:05:50.375Z,98483.55
2023-03-30T02:16:04.108Z,98479.23
2023-03-30T02:26:12.309Z,98469.84
2023-03-30T02:36:22.561Z,98458.53
2023-03-30T02:46:33.427Z,98459.16
2023-03-30T02:56:43.777Z,98455.04
2023-03-30T03:06:53.135Z,98416.94
2023-03-30T03:17:00.500Z,98409.56
2023-03-30T03:27:08.872Z,98406.14
2023-03-30T03:37:16.175Z,98398.79
2023-03-30T03:47:23.516Z,98380.20
2023-03-30T03:57:31.024Z,98381.41
2023-03-30T04:07:38.829Z,98377.30
2023-03-30T04:17:47.404Z,98361.14
2023-03-30T04:27:53.956Z,98349.08
2023-03-30T04:38:02.559Z,98334.04
2023-03-30T04:48:10.089Z,98326.88
2023-03-30T04:58:18.129Z,98317.91
2023-03-30T05:08:25.656Z,98309.80
2023-03-30T05:18:32.756Z,98301.74
2023-03-30T05:28:40.466Z,98297.39
2023-03-30T05:38:47.925Z,98295.05
2023-03-30T05:48:55.140Z,98291.45
2023-03-30T05:59:05.280Z,98298.30
2023-03-30T06:09:12.579Z,98297.04
2023-03-30T06:19:20.210Z,98287.79
2023-03-30T06:29:26.817Z,98278.99
2023-03-30T06:39:37.570Z,98263.10
2023-03-30T06:49:45.092Z,98258.66
2023-03-30T06:59:52.829Z,98252.98
2023-03-30T07:10:00.151Z,98256.14
2023-03-30T07:20:09.894Z,98251.59
2023-03-30T07:30:21.920Z,98263.63
2023-03-30T07:40:29.572Z,98258.77
2023-03-30T07:50:36.833Z,98232.40
2023-03-30T08:00:45.567Z,98219.48
2023-03-30T08:10:53.203Z,98205.73
2023-03-30T08:21:00.459Z,98195.59
2023-03-30T08:31:04.974Z,98186.83
2023-03-30T08:41:27.355Z,98186.75
2023-03-30T08:51:36.079Z,98170.08
2023-03-30T09:01:41.291Z,98151.17
2023-03-30T09:11:48.015Z,98143.42
2023-03-30T09:21:57.798Z,98138.81
2023-03-30T09:32:13.294Z,98128.67
2023-03-30T09:42:29.146Z,98105.50
2023-03-30T09:52:34.804Z,98082.27
2023-03-30T10:02:42.089Z,98071.17
2023-03-30T10:12:51.842Z,98040.49
2023-03-30T10:23:01.805Z,98031.14
2023-03-30T10:33:12.937Z,98023.11
2023-03-30T10:43:24.778Z,98019.16
2023-03-30T10:53:35.478Z,98004.59
2023-03-30T11:03:47.689Z,97982.05
2023-03-30T11:13:56.256Z,97960.86
2023-03-30T11:24:10.921Z,97950.16
2023-03-30T11:34:20.784Z,97965.84
2023-03-30T11:44:27.979Z,97980.00
2023-03-30T11:55:03.588Z,97977.57
2023-03-30T12:05:12.685Z,97966.21
2023-03-30T12:15:26.635Z,97947.61
2023-03-30T12:25:33.956Z,97950.89
2023-03-30T12:36:02.910Z,97951.97
2023-03-30T12:46:08.969Z,97960.05
2023-03-30T12:56:18.616Z,97954.95
2023-03-30T13:06:24.546Z,97953.19
2023-03-30T13:37:01.089Z,97953.33
2023-03-30T13:47:07.398Z,97947.55
2023-03-30T13:57:13.978Z,97938.95
2023-03-30T14:07:24.303Z,97922.57
2023-03-30T14:17:31.419Z,97912.48
2023-03-30T14:27:38.639Z,97913.55
2023-03-30T14:37:52.086Z,97896.65
2023-03-30T14:48:01.229Z,97884.64
2023-03-30T14:58:07.859Z,97879.71
2023-03-30T15:08:16.517Z,97861.69
2023-03-30T15:18:24.208Z,97859.84
2023-03-30T15:28:35.288Z,97852.95
2023-03-30T15:38:44.348Z,97844.84
2023-03-30T15:48:51.362Z,97833.79
2023-03-30T15:59:00.476Z,97824.02
2023-03-30T16:09:06.461Z,97807.09
2023-03-30T16:19:12.136Z,97802.63
2023-03-30T16:29:21.767Z,97785.88
2023-03-30T16:39:30.639Z,97775.48
2023-03-30T16:49:37.809Z,97772.23
2023-03-30T16:59:43.949Z,97754.98
2023-03-30T17:09:51.083Z,97736.28
2023-03-30T17:20:01.099Z,97729.42
2023-03-30T17:30:19.255Z,97787.33
2023-03-30T17:40:28.889Z,97805.73
2023-03-30T17:50:39.594Z,97797.79
2023-03-30T18:00:46.929Z,97808.48
2023-03-30T18:10:55.413Z,97827.10
2023-03-30T18:21:04.614Z,97822.16
2023-03-30T18:31:13.333Z,97813.46
2023-03-30T18:41:20.784Z,97816.05
2023-03-30T18:51:28.047Z,97811.96
2023-03-30T19:11:42.512Z,97800.30
2023-03-30T19:21:55.647Z,97796.48
2023-03-30T19:32:03.060Z,97780.43
2023-03-30T19:42:09.510Z,97774.73
2023-03-30T19:52:16.243Z,97764.67
2023-03-30T20:02:22.914Z,97759.08
2023-03-30T20:12:31.680Z,97740.02
2023-03-30T20:22:41.411Z,97728.03
2023-03-30T20:33:00.139Z,97717.54
2023-03-30T20:43:13.693Z,97710.84
2023-03-30T20:53:21.424Z,97712.32
2023-03-30T21:03:30.311Z,97721.25
2023-03-30T21:13:38.163Z,97719.91
2023-03-30T21:23:44.344Z,97720.31
2023-03-30T21:33:51.923Z,97727.96
2023-03-30T21:43:58.986Z,97751.88
2023-03-30T21:54:05.598Z,97757.45
2023-03-30T22:04:12.905Z,97751.48
2023-03-30T22:14:20.043Z,97732.73
2023-03-30T22:24:27.303Z,97718.20
2023-03-30T22:34:34.899Z,97700.66
2023-03-30T22:44:41.929Z,97705.73
2023-03-30T22:54:49.001Z,97703.70
2023-03-30T23:15:02.602Z,97719.20
2023-03-30T23:25:10.968Z,97732.58
2023-03-30T23:35:16.843Z,97739.54
2023-03-30T23:45:23.922Z,97742.08
2023-03-30T23:55:31.213Z,97741.19
